Time;durP1;ratioP1;P1;durP2;ratioP2;P2;SDS_P1;SDS_P2;PMS_P1;PMS_P2;Temp;Humidity;BMP_temperature;BMP_pressure;BME280_temperature;BME280_humidity;BME280_pressure;Samples;Min_cycle;Max_cycle;Signal;HPM_P1;HPM_P2
2022/05/31 00:00:38;;;;;;;12.82;7.83;;;;;;;10.10;66.37;97146.52;1773097;80;25663;-73
2022/05/31 00:03:06;;;;;;;11.95;7.30;;;;;;;10.08;66.38;97151.30;1773201;80;27431;-73
2022/05/31 00:05:33;;;;;;;9.43;7.35;;;;;;;10.04;66.36;97148.70;1772901;80;25743;-75
2022/05/31 00:08:00;;;;;;;9.23;8.23;;;;;;;9.99;66.48;97152.58;1772994;80;25847;-74
2022/05/31 00:10:27;;;;;;;9.60;7.75;;;;;;;9.96;66.57;97153.83;1772948;80;25746;-74
2022/05/31 00:12:53;;;;;;;12.50;7.53;;;;;;;9.92;66.68;97153.11;1773233;80;25734;-74
2022/05/31 00:15:21;;;;;;;10.95;8.10;;;;;;;9.84;66.78;97154.19;1773124;80;27972;-75
2022/05/31 00:17:47;;;;;;;9.93;7.92;;;;;;;9.85;66.98;97152.32;1773000;80;25234;-74
2022/05/31 00:20:15;;;;;;;11.18;7.50;;;;;;;9.85;67.02;97154.50;1773032;80;25443;-73
2022/05/31 00:22:43;;;;;;;9.75;7.72;;;;;;;9.85;67.12;97150.97;1773129;80;27051;-75
2022/05/31 00:25:11;;;;;;;9.60;8.25;;;;;;;9.83;67.13;97159.78;1773085;80;25758;-73
2022/05/31 00:27:38;;;;;;;10.15;8.15;;;;;;;9.83;67.18;97154.39;1773045;80;27402;-74
2022/05/31 00:30:07;;;;;;;10.20;7.78;;;;;;;9.81;67.23;97161.86;1772942;80;25700;-73
2022/05/31 00:32:38;;;;;;;11.18;7.83;;;;;;;9.79;67.29;97167.98;1772931;80;25743;-75
2022/05/31 00:35:10;;;;;;;8.93;7.50;;;;;;;9.74;67.33;97165.94;1772033;80;25791;-73
2022/05/31 00:37:37;;;;;;;11.05;7.10;;;;;;;9.68;67.32;97163.55;1748978;82;33148;-73
2022/05/31 00:40:06;;;;;;;8.55;7.50;;;;;;;9.63;67.41;97161.20;1748648;82;27421;-74
2022/05/31 00:42:54;;;;;;;8.03;6.80;;;;;;;9.59;67.48;97164.00;1748677;82;25939;-74
2022/05/31 00:45:32;;;;;;;8.43;7.50;;;;;;;9.57;67.50;97163.38;1749412;81;25823;-74
2022/05/31 00:47:58;;;;;;;7.60;6.80;;;;;;;9.55;67.60;97164.10;1746845;81;26513;-73
2022/05/31 00:50:36;;;;;;;8.13;7.28;;;;;;;9.51;67.54;97173.15;1749553;82;25965;-73
2022/05/31 00:53:11;;;;;;;8.55;7.10;;;;;;;9.48;67.59;97170.03;1749434;82;27376;-75
2022/05/31 00:55:50;;;;;;;8.63;7.35;;;;;;;9.40;67.67;97173.79;1711788;83;25524;-73
2022/05/31 00:58:21;;;;;;;9.68;6.92;;;;;;;9.35;67.77;97177.09;1695628;84;25860;-74
2022/05/31 01:00:50;;;;;;;8.80;7.33;;;;;;;9.34;67.86;97175.44;1634896;87;25848;-73
2022/05/31 01:03:21;;;;;;;9.98;7.45;;;;;;;9.32;67.86;97177.51;1634583;87;25854;-74
2022/05/31 01:05:47;;;;;;;9.10;6.80;;;;;;;9.27;67.86;97175.98;1634416;87;27450;-75
2022/05/31 01:08:14;;;;;;;8.40;7.25;;;;;;;9.27;67.91;97173.80;1634781;87;25546;-75
2022/05/31 01:10:42;;;;;;;7.33;6.58;;;;;;;9.26;67.91;97177.53;1635006;87;25318;-74
2022/05/31 01:13:12;;;;;;;9.93;7.35;;;;;;;9.24;67.92;97182.30;1634751;87;25823;-73
2022/05/31 01:15:38;;;;;;;7.87;7.08;;;;;;;9.20;67.90;97189.12;1634810;87;25792;-74
2022/05/31 01:18:05;;;;;;;9.10;6.67;;;;;;;9.16;67.87;97192.77;1613030;87;27992;-73
2022/05/31 01:20:32;;;;;;;7.40;6.70;;;;;;;9.12;67.87;97184.78;1634710;87;25735;-73
2022/05/31 01:23:10;;;;;;;9.45;7.05;;;;;;;9.09;67.92;97187.05;1634629;87;25847;-73
2022/05/31 01:26:07;;;;;;;9.88;7.58;;;;;;;9.04;67.94;97193.08;1607174;89;25962;-75
2022/05/31 01:28:51;;;;;;;12.35;7.60;;;;;;;9.00;68.05;97195.34;1573847;91;25832;-74
2022/05/31 01:31:44;;;;;;;8.03;7.20;;;;;;;8.94;68.14;97196.16;1576100;91;28463;-73
2022/05/31 01:37:05;;;;;;;7.40;6.60;;;;;;;8.85;68.10;97197.91;1496363;95;25904;-73
2022/05/31 01:39:51;;;;;;;6.90;6.30;;;;;;;8.80;68.06;97197.72;1505410;94;26599;-75
2022/05/31 01:42:31;;;;;;;8.73;7.47;;;;;;;8.74;68.05;97199.34;1461307;96;25849;-73
2022/05/31 01:45:09;;;;;;;8.03;6.95;;;;;;;8.64;68.17;97205.13;1462788;96;27546;-73
2022/05/31 01:47:37;;;;;;;10.23;7.35;;;;;;;8.60;68.12;97208.42;1461047;97;25893;-73
2022/05/31 01:50:08;;;;;;;10.38;7.53;;;;;;;8.53;68.05;97219.70;1461127;98;25840;-73
2022/05/31 01:52:35;;;;;;;10.75;7.33;;;;;;;8.47;68.06;97215.11;1453588;96;26433;-75
2022/05/31 01:55:03;;;;;;;7.95;7.15;;;;;;;8.43;68.10;97220.61;1447093;97;25873;-73
2022/05/31 01:57:32;;;;;;;10.50;8.10;;;;;;;8.33;68.13;97216.96;1449384;97;27654;-73
2022/05/31 02:00:09;;;;;;;9.00;7.70;;;;;;;8.25;68.20;97220.61;1449348;97;25896;-74
2022/05/31 02:02:36;;;;;;;9.08;8.00;;;;;;;8.17;68.30;97218.61;1449360;98;26845;-75
2022/05/31 02:05:03;;;;;;;10.65;7.78;;;;;;;8.05;68.54;97215.67;1449351;98;26545;-74
2022/05/31 02:07:30;;;;;;;8.80;7.53;;;;;;;7.97;68.75;97219.05;1448956;97;25918;-74
2022/05/31 02:09:57;;;;;;;9.43;8.23;;;;;;;7.87;68.96;97211.33;1448941;98;27694;-74
2022/05/31 02:12:28;;;;;;;11.25;7.87;;;;;;;7.83;69.18;97214.95;1448860;98;25934;-74
2022/05/31 02:14:56;;;;;;;8.73;7.70;;;;;;;7.81;69.31;97210.80;1449137;97;26008;-74
2022/05/31 02:17:23;;;;;;;13.53;8.75;;;;;;;7.75;69.45;97213.75;1448991;97;25905;-74
2022/05/31 02:19:50;;;;;;;9.13;7.72;;;;;;;7.68;69.55;97216.92;1448967;97;25900;-73
2022/05/31 02:22:22;;;;;;;10.93;8.10;;;;;;;7.58;69.69;97219.97;1485367;94;27518;-74
2022/05/31 02:24:49;;;;;;;10.53;8.48;;;;;;;7.54;69.83;97220.03;1517017;94;25341;-73
2022/05/31 02:27:15;;;;;;;8.48;7.58;;;;;;;7.57;70.00;97222.84;1533560;91;25876;-75
2022/05/31 02:29:43;;;;;;;9.00;7.62;;;;;;;7.60;70.00;97223.80;1562052;91;25897;-74
2022/05/31 02:32:13;;;;;;;11.00;8.15;;;;;;;7.66;69.95;97224.85;1562087;91;25905;-74
2022/05/31 02:34:44;;;;;;;10.18;7.62;;;;;;;7.67;69.76;97223.83;1629996;85;28151;-75
2022/05/31 02:37:12;;;;;;;8.17;7.37;;;;;;;7.68;69.68;97230.86;1673016;85;25806;-74
2022/05/31 02:39:39;;;;;;;10.50;8.05;;;;;;;7.66;69.59;97236.44;1672896;85;25441;-73
2022/05/31 02:42:07;;;;;;;10.08;7.72;;;;;;;7.64;69.59;97234.45;1672547;85;25860;-75
2022/05/31 02:44:34;;;;;;;9.43;8.43;;;;;;;7.61;69.57;97230.80;1671493;81;25796;-73
2022/05/31 02:47:01;;;;;;;8.45;7.62;;;;;;;7.59;69.51;97227.00;1757858;81;28147;-74
2022/05/31 02:49:27;;;;;;;10.95;7.30;;;;;;;7.54;69.50;97229.44;1757843;81;25633;-73
2022/05/31 02:51:55;;;;;;;9.58;7.80;;;;;;;7.48;69.57;97228.89;1757791;81;25916;-73
2022/05/31 02:54:21;;;;;;;8.75;7.83;;;;;;;7.40;69.65;97236.24;1757818;81;26274;-75
2022/05/31 02:56:48;;;;;;;9.25;7.62;;;;;;;7.35;69.84;97236.02;1757876;81;25918;-73
2022/05/31 02:59:14;;;;;;;9.75;7.87;;;;;;;7.34;70.09;97233.02;1757804;81;27308;-74
2022/05/31 03:01:42;;;;;;;9.35;7.92;;;;;;;7.36;70.15;97237.17;1757776;81;25769;-74
2022/05/31 03:04:11;;;;;;;11.30;8.13;;;;;;;7.42;70.16;97243.09;1757826;81;25850;-74
2022/05/31 03:06:38;;;;;;;8.38;7.45;;;;;;;7.44;70.10;97238.36;1757880;81;25665;-73
2022/05/31 03:09:07;;;;;;;10.28;7.90;;;;;;;7.45;69.96;97235.98;1757697;81;25693;-73
2022/05/31 03:11:47;;;;;;;10.98;7.60;;;;;;;7.43;69.91;97239.38;1757705;81;27553;-73
2022/05/31 03:14:45;;;;;;;8.45;7.50;;;;;;;7.42;69.85;97243.09;1757697;81;25496;-73
2022/05/31 03:17:26;;;;;;;8.43;7.58;;;;;;;7.41;69.89;97242.77;1757892;81;25783;-72
2022/05/31 03:20:09;;;;;;;8.63;7.12;;;;;;;7.40;69.92;97245.13;1657008;86;25839;-73
2022/05/31 03:22:47;;;;;;;9.45;7.40;;;;;;;7.40;69.94;97243.79;1661969;86;25786;-73
2022/05/31 03:25:23;;;;;;;8.28;7.00;;;;;;;7.40;69.90;97253.70;1632777;87;27463;-73
2022/05/31 03:27:54;;;;;;;9.28;7.62;;;;;;;7.35;69.84;97244.91;1636002;87;25546;-74
2022/05/31 03:30:21;;;;;;;8.68;7.17;;;;;;;7.33;69.94;97242.92;1635926;87;25914;-73
2022/05/31 03:32:48;;;;;;;9.53;7.17;;;;;;;7.33;69.94;97241.58;1644743;87;25832;-74
2022/05/31 03:35:15;;;;;;;9.20;7.70;;;;;;;7.32;69.97;97247.14;1665042;86;25895;-73
2022/05/31 03:37:41;;;;;;;10.03;8.35;;;;;;;7.31;70.00;97251.68;1665107;86;27321;-74
2022/05/31 03:40:10;;;;;;;11.00;7.58;;;;;;;7.30;70.02;97247.33;1665198;86;25797;-73
2022/05/31 03:42:36;;;;;;;8.13;7.33;;;;;;;7.30;70.10;97255.90;1665103;86;25834;-73
2022/05/31 03:45:03;;;;;;;7.87;7.08;;;;;;;7.29;70.17;97247.52;1664945;86;25673;-74
2022/05/31 03:47:30;;;;;;;9.03;7.78;;;;;;;7.30;70.19;97243.81;1664900;86;25727;-75
2022/05/31 03:49:56;;;;;;;9.58;8.05;;;;;;;7.32;70.26;97241.26;1665100;86;27616;-73
2022/05/31 03:52:23;;;;;;;9.45;8.45;;;;;;;7.35;70.31;97242.22;1664982;86;25932;-74
2022/05/31 03:54:49;;;;;;;8.50;7.60;;;;;;;7.36;70.38;97239.86;1665183;86;25798;-73
2022/05/31 03:57:20;;;;;;;11.15;8.18;;;;;;;7.41;70.45;97240.59;1654851;86;25880;-74
2022/05/31 03:59:47;;;;;;;13.22;7.80;;;;;;;7.44;70.51;97246.41;1646738;87;25965;-73
2022/05/31 04:02:13;;;;;;;8.90;7.50;;;;;;;7.47;70.60;97252.74;1646644;87;27444;-73
2022/05/31 04:04:40;;;;;;;10.95;8.83;;;;;;;7.51;70.68;97247.79;1646327;87;25827;-72
2022/05/31 04:07:06;;;;;;;22.65;16.02;;;;;;;7.56;70.76;97250.73;1646789;87;25832;-73
2022/05/31 04:09:33;;;;;;;14.83;11.53;;;;;;;7.60;70.69;97245.30;1646664;87;25767;-73
2022/05/31 04:12:00;;;;;;;12.37;9.53;;;;;;;7.63;70.67;97249.42;1646776;87;25814;-74
2022/05/31 04:14:26;;;;;;;14.68;9.30;;;;;;;7.64;70.71;97241.67;1646824;87;28021;-73
2022/05/31 04:16:53;;;;;;;14.63;9.53;;;;;;;7.66;70.80;97250.37;1646572;87;25982;-73
2022/05/31 04:19:19;;;;;;;10.30;9.15;;;;;;;7.68;70.97;97244.30;1677151;84;25331;-73
2022/05/31 04:21:46;;;;;;;10.05;8.98;;;;;;;7.72;71.10;97249.09;1741024;81;25806;-73
2022/05/31 04:24:13;;;;;;;11.40;9.35;;;;;;;7.78;71.15;97255.52;1769979;81;25673;-74
2022/05/31 04:26:46;;;;;;;14.70;9.95;;;;;;;7.81;71.15;97253.28;1770075;81;27523;-74
2022/05/31 04:29:13;;;;;;;15.03;10.85;;;;;;;7.87;71.21;97252.98;1769853;81;25771;-73
2022/05/31 04:31:40;;;;;;;9.80;8.88;;;;;;;7.92;71.30;97251.38;1769961;81;25647;-74
2022/05/31 04:34:06;;;;;;;11.97;9.10;;;;;;;7.99;71.35;97254.08;1770051;81;25719;-73
2022/05/31 04:36:33;;;;;;;12.03;9.55;;;;;;;8.05;71.42;97249.27;1769832;81;25242;-73
2022/05/31 04:39:01;;;;;;;9.95;8.95;;;;;;;8.12;71.44;97251.98;1770048;81;27416;-73
2022/05/31 04:41:30;;;;;;;32.73;9.93;;;;;;;8.17;71.48;97249.02;1769907;81;25705;-74
2022/05/31 04:43:59;;;;;;;15.25;8.83;;;;;;;8.22;71.53;97247.89;1779732;79;25778;-74
2022/05/31 04:46:29;;;;;;;15.28;9.30;;;;;;;8.28;71.61;97248.45;1801196;79;25740;-73
2022/05/31 04:48:57;;;;;;;9.63;8.70;;;;;;;8.35;71.66;97243.11;1801518;79;25682;-73
2022/05/31 04:51:24;;;;;;;12.23;9.20;;;;;;;8.43;71.66;97246.16;1801194;79;26976;-73
2022/05/31 04:53:51;;;;;;;10.43;9.28;;;;;;;8.51;71.79;97241.42;1801152;79;25868;-74
2022/05/31 04:56:20;;;;;;;11.18;8.50;;;;;;;8.58;71.76;97245.45;1801344;79;25673;-73
2022/05/31 04:58:50;;;;;;;11.80;9.13;;;;;;;8.65;71.93;97240.95;1801407;79;26315;-73
2022/05/31 05:01:18;;;;;;;11.78;10.08;;;;;;;8.70;71.91;97237.11;1801201;79;25749;-74
2022/05/31 05:03:45;;;;;;;13.85;10.05;;;;;;;8.77;71.90;97240.66;1772007;79;27582;-73
2022/05/31 05:06:14;;;;;;;12.82;10.53;;;;;;;8.84;71.87;97242.01;1801001;79;25650;-75
2022/05/31 05:08:42;;;;;;;17.07;11.18;;;;;;;8.92;71.92;97239.14;1801360;79;25689;-73
2022/05/31 05:11:12;;;;;;;14.33;10.82;;;;;;;8.99;71.85;97234.07;1801282;79;26379;-74
2022/05/31 05:13:40;;;;;;;14.70;11.03;;;;;;;9.07;71.80;97235.72;1801204;79;25690;-74
2022/05/31 05:16:09;;;;;;;13.10;10.70;;;;;;;9.16;71.84;97237.72;1801291;79;27426;-75
2022/05/31 05:18:36;;;;;;;11.73;10.53;;;;;;;9.24;71.85;97232.12;1801239;79;25709;-74
2022/05/31 05:21:06;;;;;;;12.37;9.95;;;;;;;9.33;71.96;97233.56;1801232;79;25738;-73
2022/05/31 05:23:33;;;;;;;15.15;10.10;;;;;;;9.42;72.08;97232.30;1801293;79;25764;-75
2022/05/31 05:26:01;;;;;;;12.05;10.30;;;;;;;9.52;72.00;97232.73;1801466;79;25617;-73
2022/05/31 05:31:25;;;;;;;13.65;9.93;;;;;;;9.72;71.74;97232.70;1800996;79;25641;-75
2022/05/31 05:33:52;;;;;;;15.48;10.70;;;;;;;9.82;71.60;97239.00;1797676;79;25733;-73
2022/05/31 05:36:19;;;;;;;14.80;10.65;;;;;;;9.92;71.55;97238.87;1801238;79;26343;-73
2022/05/31 05:38:45;;;;;;;18.17;9.53;;;;;;;10.02;71.61;97237.11;1801212;79;25734;-74
2022/05/31 05:41:12;;;;;;;13.98;10.95;;;;;;;10.14;71.67;97231.88;1801352;79;27354;-73
2022/05/31 05:43:40;;;;;;;11.95;10.72;;;;;;;10.25;71.77;97234.77;1772154;79;25700;-73
2022/05/31 05:46:19;;;;;;;11.97;9.78;;;;;;;10.35;71.79;97236.50;1800882;79;25529;-74
2022/05/31 05:48:47;;;;;;;17.15;10.20;;;;;;;10.48;71.69;97236.13;1801166;79;26576;-73
2022/05/31 05:51:17;;;;;;;16.45;10.45;;;;;;;10.58;71.55;97234.63;1801210;79;25658;-74
2022/05/31 05:53:44;;;;;;;12.37;9.38;;;;;;;10.70;71.53;97230.72;1801128;79;27440;-74
2022/05/31 05:56:13;;;;;;;12.07;9.75;;;;;;;10.81;71.40;97226.80;1801191;79;25711;-74
2022/05/31 05:58:40;;;;;;;11.95;10.63;;;;;;;10.93;71.51;97232.34;1801255;79;25731;-74
2022/05/31 06:01:12;;;;;;;13.80;10.23;;;;;;;11.07;71.41;97229.86;1801251;79;25735;-75
2022/05/31 06:03:50;;;;;;;12.05;9.50;;;;;;;11.17;71.15;97226.66;1716661;83;25787;-74
2022/05/31 06:06:18;;;;;;;14.33;9.85;;;;;;;11.28;71.17;97225.13;1714458;83;27386;-75
2022/05/31 06:08:59;;;;;;;11.70;9.75;;;;;;;11.40;70.99;97224.71;1716496;83;25782;-74
2022/05/31 06:11:39;;;;;;;11.73;9.25;;;;;;;11.50;70.62;97222.33;1716235;83;25892;-74
2022/05/31 06:14:19;;;;;;;9.70;8.70;;;;;;;11.61;70.46;97220.25;1694958;84;26699;-75
2022/05/31 06:16:51;;;;;;;11.97;9.33;;;;;;;11.73;70.39;97217.13;1694905;84;26076;-73
2022/05/31 06:19:22;;;;;;;11.22;9.10;;;;;;;11.87;70.53;97216.50;1665811;86;28099;-74
2022/05/31 06:21:51;;;;;;;13.18;10.25;;;;;;;12.02;70.71;97214.27;1631703;87;25938;-75
2022/05/31 06:24:20;;;;;;;13.00;9.75;;;;;;;12.19;70.48;97211.80;1631940;87;25397;-74
2022/05/31 06:26:46;;;;;;;10.93;9.28;;;;;;;12.32;69.97;97223.78;1631965;87;26541;-74
2022/05/31 06:29:13;;;;;;;11.25;9.55;;;;;;;12.44;69.80;97213.84;1632082;87;25274;-75
2022/05/31 06:31:39;;;;;;;9.85;8.83;;;;;;;12.55;69.71;97213.11;1631740;87;27454;-73
2022/05/31 06:34:06;;;;;;;10.23;9.03;;;;;;;12.68;69.37;97215.34;1631706;87;25799;-74
2022/05/31 06:36:32;;;;;;;10.40;8.33;;;;;;;12.80;69.57;97209.45;1632087;87;25850;-74
2022/05/31 06:38:59;;;;;;;9.68;8.63;;;;;;;12.93;69.23;97199.73;1631935;87;26490;-74
2022/05/31 06:41:25;;;;;;;8.50;7.50;;;;;;;13.05;68.75;97202.48;1631947;87;25886;-75
2022/05/31 06:43:52;;;;;;;11.20;7.90;;;;;;;13.16;68.31;97198.47;1631603;87;27618;-75
2022/05/31 06:46:19;;;;;;;8.08;6.97;;;;;;;13.24;67.49;97196.80;1623230;88;25856;-74
2022/05/31 06:48:46;;;;;;;9.43;7.50;;;;;;;13.35;67.43;97193.81;1623588;88;25733;-74
2022/05/31 06:56:48;;;;;;;7.53;6.83;;;;;;;13.48;67.36;97191.41;1623358;88;25847;-74
2022/05/31 06:59:13;;;;;;;9.18;7.00;;;;;;;13.92;66.59;97200.30;1623446;88;25728;-74
2022/05/31 07:01:40;;;;;;;8.78;6.62;;;;;;;14.10;66.71;97197.16;1693134;84;25311;-74
2022/05/31 07:04:07;;;;;;;6.62;6.03;;;;;;;14.23;66.42;97194.19;1695912;84;25767;-74
2022/05/31 07:06:34;;;;;;;8.28;6.20;;;;;;;14.37;66.40;97195.02;1695888;84;25924;-74
2022/05/31 07:09:00;;;;;;;5.95;5.35;;;;;;;14.53;66.00;97188.03;1695842;84;28372;-74
2022/05/31 07:11:28;;;;;;;6.20;5.60;;;;;;;14.71;66.14;97190.58;1699584;84;25707;-74
2022/05/31 07:13:55;;;;;;;9.13;5.83;;;;;;;14.86;65.47;97192.73;1700966;84;25796;-75
2022/05/31 07:16:22;;;;;;;9.45;5.35;;;;;;;14.98;64.94;97184.52;1729744;81;26544;-74
2022/05/31 07:18:49;;;;;;;7.12;5.55;;;;;;;15.08;64.36;97184.73;1775161;79;25712;-75
2022/05/31 07:21:16;;;;;;;8.48;5.72;;;;;;;15.18;64.23;97184.91;1794064;79;27332;-75
2022/05/31 07:23:42;;;;;;;8.45;4.62;;;;;;;15.34;64.27;97182.70;1794080;79;25710;-74
2022/05/31 07:26:12;;;;;;;7.65;5.12;;;;;;;15.53;63.99;97183.30;1794258;79;25707;-75
2022/05/31 07:28:39;;;;;;;5.17;4.55;;;;;;;15.65;63.20;97179.16;1794096;79;26529;-75
2022/05/31 07:31:07;;;;;;;4.97;4.47;;;;;;;15.76;62.68;97179.06;1794156;79;25667;-74
2022/05/31 07:33:35;;;;;;;5.75;4.70;;;;;;;15.88;62.38;97176.23;1793976;79;27436;-75
2022/05/31 07:36:05;;;;;;;5.97;4.50;;;;;;;16.03;61.93;97171.02;1793952;79;25914;-75
2022/05/31 07:38:32;;;;;;;4.92;3.50;;;;;;;16.21;61.54;97174.78;1798699;78;25738;-74
2022/05/31 07:40:59;;;;;;;7.95;4.35;;;;;;;16.39;60.92;97174.20;1794080;79;25687;-74
2022/05/31 07:43:26;;;;;;;4.67;3.40;;;;;;;16.53;60.35;97175.46;1794170;79;25894;-75
2022/05/31 07:46:10;;;;;;;5.20;4.08;;;;;;;16.66;59.87;97172.38;1789105;78;28117;-76
2022/05/31 07:48:38;;;;;;;4.55;3.42;;;;;;;16.84;59.61;97177.47;1798038;78;25404;-75
2022/05/31 07:51:07;;;;;;;5.78;2.87;;;;;;;17.12;58.98;97181.84;1813805;79;25766;-75
2022/05/31 07:53:33;;;;;;;3.40;2.83;;;;;;;17.47;58.15;97179.14;1814059;79;26051;-75
2022/05/31 07:56:09;;;;;;;4.80;3.05;;;;;;;17.93;57.75;97174.86;1814396;79;25664;-76
2022/05/31 07:58:42;;;;;;;3.02;2.72;;;;;;;18.41;56.80;97182.48;1814150;79;27428;-74
2022/05/31 08:01:13;;;;;;;4.28;2.85;;;;;;;18.77;55.62;97182.11;1814137;79;25671;-75
2022/05/31 08:03:41;;;;;;;3.50;2.72;;;;;;;19.30;55.75;97180.31;1754784;81;25839;-74
2022/05/31 08:06:24;;;;;;;3.42;2.72;;;;;;;19.82;54.41;97180.59;1754217;81;25724;-76
2022/05/31 08:08:51;;;;;;;4.92;3.17;;;;;;;20.34;54.26;97180.20;1743558;82;25702;-75
2022/05/31 08:11:23;;;;;;;3.22;2.87;;;;;;;20.88;53.26;97175.35;1743425;82;28374;-78
2022/05/31 08:13:50;;;;;;;4.80;2.45;;;;;;;21.16;52.59;97172.42;1743701;82;25836;-75
2022/05/31 08:16:21;;;;;;;4.05;2.75;;;;;;;21.58;52.29;97173.80;1743316;82;25347;-75
2022/05/31 08:18:48;;;;;;;4.03;2.15;;;;;;;22.02;51.60;97173.69;1743721;82;25753;-76
2022/05/31 08:21:21;;;;;;;2.60;2.30;;;;;;;22.45;50.75;97178.19;1743927;82;25825;-75
2022/05/31 08:23:48;;;;;;;3.60;2.40;;;;;;;22.92;49.80;97175.97;1743432;82;28028;-76
2022/05/31 08:26:14;;;;;;;2.90;1.95;;;;;;;23.29;48.83;97164.14;1743656;82;26475;-72
2022/05/31 08:28:41;;;;;;;2.35;2.12;;;;;;;23.60;47.83;97170.56;1743587;82;25794;-74
2022/05/31 08:31:11;;;;;;;6.87;2.08;;;;;;;23.88;46.97;97161.83;1743533;82;26489;-74
2022/05/31 08:33:40;;;;;;;3.00;2.12;;;;;;;24.21;46.08;97166.73;1734118;82;25859;-76
2022/05/31 08:36:08;;;;;;;3.25;2.30;;;;;;;24.53;46.21;97159.77;1743538;82;27461;-74
2022/05/31 08:38:35;;;;;;;3.20;2.02;;;;;;;24.97;45.66;97157.78;1743566;82;25790;-75
2022/05/31 08:41:24;;;;;;;4.20;2.12;;;;;;;25.31;44.88;97154.51;1743421;82;25783;-75
2022/05/31 08:44:04;;;;;;;3.77;2.10;;;;;;;25.59;44.10;97154.41;1743673;82;26555;-74
2022/05/31 08:46:59;;;;;;;4.05;2.47;;;;;;;25.82;42.83;97156.88;1758294;80;25520;-74
2022/05/31 08:53:16;;;;;;;3.47;2.15;;;;;;;26.08;40.78;97143.17;1730894;82;25819;-74
2022/05/31 08:58:55;;;;;;;2.55;2.27;;;;;;;26.38;40.19;97147.67;1669432;85;25883;-74
2022/05/31 09:01:30;;;;;;;3.33;2.20;;;;;;;26.54;39.59;97146.11;1573240;91;25918;-74
2022/05/31 09:04:14;;;;;;;2.70;1.80;;;;;;;26.65;38.94;97146.63;1572064;90;26853;-75
2022/05/31 09:06:58;;;;;;;3.27;1.90;;;;;;;26.78;39.33;97146.52;1593863;88;27028;-75
2022/05/31 09:09:38;;;;;;;2.65;1.77;;;;;;;26.94;38.70;97146.06;1617183;88;25796;-74
2022/05/31 09:12:35;;;;;;;4.47;2.10;;;;;;;27.11;38.49;97137.79;1616307;88;25917;-74
2022/05/31 09:15:25;;;;;;;2.12;1.72;;;;;;;27.22;38.30;97140.48;1620294;88;25726;-75
2022/05/31 09:18:16;;;;;;;2.98;2.17;;;;;;;27.22;37.20;97137.72;1617211;88;27480;-78
2022/05/31 09:20:56;;;;;;;8.43;2.13;;;;;;;26.96;36.99;97134.09;1620330;88;25725;-75
2022/05/31 09:23:28;;;;;;;3.27;1.85;;;;;;;26.72;36.30;97136.70;1620325;88;25858;-74
2022/05/31 09:26:27;;;;;;;5.20;2.20;;;;;;;26.67;36.60;97131.34;1594578;89;26664;-74
2022/05/31 09:29:07;;;;;;;2.45;1.98;;;;;;;26.69;35.71;97129.03;1544684;92;25923;-75
2022/05/31 09:32:18;;;;;;;2.10;1.80;;;;;;;26.42;35.48;97123.77;1551549;88;27433;-75
2022/05/31 09:34:59;;;;;;;4.28;1.80;;;;;;;26.28;35.42;97129.97;1618902;88;25803;-74
2022/05/31 09:37:40;;;;;;;3.17;2.02;;;;;;;26.35;35.54;97124.22;1634949;87;26629;-75
2022/05/31 09:40:38;;;;;;;2.33;1.98;;;;;;;26.18;35.24;97119.98;1689852;84;25885;-75
2022/05/31 09:43:40;;;;;;;2.67;1.70;;;;;;;26.26;35.32;97121.14;1677242;85;25799;-77
2022/05/31 09:46:11;;;;;;;1.70;1.60;;;;;;;26.20;35.29;97117.72;1677231;85;33083;-74
2022/05/31 09:48:51;;;;;;;1.90;1.70;;;;;;;26.39;35.28;97127.17;1677277;85;25725;-73
2022/05/31 09:51:29;;;;;;;1.80;1.60;;;;;;;26.17;33.57;97126.08;1610349;87;25818;-74
2022/05/31 09:59:29;;;;;;;2.92;2.10;;;;;;;26.23;34.34;97120.39;1663565;86;27361;-74
2022/05/31 10:02:16;;;;;;;2.08;1.87;;;;;;;26.43;33.58;97118.48;1656038;86;25847;-73
2022/05/31 10:04:43;;;;;;;3.70;1.75;;;;;;;26.47;33.11;97113.92;1638336;87;25859;-76
2022/05/31 10:07:10;;;;;;;3.40;1.70;;;;;;;26.58;32.99;97110.28;1695046;83;25781;-73
2022/05/31 10:09:48;;;;;;;1.62;1.52;;;;;;;26.75;32.60;97109.77;1694087;83;26915;-75
2022/05/31 10:12:22;;;;;;;3.33;2.27;;;;;;;26.79;32.26;97107.17;1691629;83;27958;-75
2022/05/31 10:14:51;;;;;;;2.30;1.70;;;;;;;26.63;32.55;97107.38;1725653;83;25728;-74
2022/05/31 10:17:41;;;;;;;3.67;1.75;;;;;;;26.66;32.43;97105.36;1694439;83;25857;-74
2022/05/31 10:20:21;;;;;;;5.72;2.80;;;;;;;26.73;32.14;97101.53;1688949;84;26599;-74
2022/05/31 10:23:11;;;;;;;3.98;2.87;;;;;;;26.79;31.94;97103.84;1717624;82;25747;-75
2022/05/31 10:25:56;;;;;;;5.08;3.05;;;;;;;26.71;32.09;97099.08;1747809;82;26859;-74
2022/05/31 10:28:37;;;;;;;2.77;2.00;;;;;;;26.90;32.44;97101.00;1773657;79;25827;-75
2022/05/31 10:31:20;;;;;;;2.17;1.82;;;;;;;27.18;32.10;97096.55;1790165;79;25701;-75
2022/05/31 10:33:58;;;;;;;1.72;1.60;;;;;;;27.28;31.57;97089.32;1789841;79;27015;-74
2022/05/31 10:36:30;;;;;;;2.12;1.85;;;;;;;27.16;31.93;97096.09;1790841;79;25662;-74
2022/05/31 10:39:10;;;;;;;2.33;1.77;;;;;;;27.08;31.51;97084.41;1745398;81;27383;-77
2022/05/31 10:41:38;;;;;;;2.25;2.00;;;;;;;26.93;31.80;97083.53;1752145;81;25939;-75
2022/05/31 10:44:33;;;;;;;2.15;1.55;;;;;;;26.86;31.74;97086.16;1753619;81;25951;-74
2022/05/31 10:47:14;;;;;;;3.52;2.00;;;;;;;26.73;31.73;97092.66;1752547;81;25829;-74
2022/05/31 10:49:44;;;;;;;2.60;2.02;;;;;;;26.54;31.97;97096.30;1753666;81;26734;-75
2022/05/31 10:52:46;;;;;;;2.60;1.70;;;;;;;26.43;32.06;97095.78;1753505;81;28104;-76
2022/05/31 10:55:33;;;;;;;1.82;1.72;;;;;;;26.32;32.12;97090.86;1687936;84;25777;-74
2022/05/31 10:58:31;;;;;;;3.65;1.80;;;;;;;26.36;32.46;97087.67;1686596;85;25815;-76
2022/05/31 11:01:03;;;;;;;2.50;1.87;;;;;;;26.41;32.65;97084.77;1653118;86;25705;-74
2022/05/31 11:03:47;;;;;;;1.87;1.70;;;;;;;26.67;33.00;97081.51;1629595;87;25812;-73
2022/05/31 11:06:31;;;;;;;4.42;1.70;;;;;;;26.86;33.18;97077.86;1557425;92;27410;-76
2022/05/31 11:12:49;;;;;;;3.42;2.20;;;;;;;27.12;32.85;97074.32;1529202;93;25997;-74
2022/05/31 11:15:37;;;;;;;4.85;1.90;;;;;;;27.32;33.03;97079.19;1480285;96;25875;-74
2022/05/31 11:18:24;;;;;;;2.30;2.08;;;;;;;27.32;32.15;97076.42;1503951;95;25816;-74
2022/05/31 11:21:31;;;;;;;2.72;2.45;;;;;;;27.30;32.06;97066.23;1503532;95;28285;-74
2022/05/31 11:24:29;;;;;;;5.05;2.50;;;;;;;27.22;31.60;97055.41;1482446;96;25893;-74
2022/05/31 11:27:19;;;;;;;6.70;2.15;;;;;;;26.88;32.38;97052.05;1506307;95;25881;-75
2022/05/31 11:30:15;;;;;;;4.22;3.33;;;;;;;26.87;32.44;97055.95;1485813;96;25958;-74
2022/05/31 11:33:07;;;;;;;4.08;2.25;;;;;;;26.87;32.49;97046.26;1465125;97;26533;-74
2022/05/31 11:36:17;;;;;;;3.37;2.50;;;;;;;26.85;32.37;97051.30;1488922;94;28344;-74
2022/05/31 11:38:54;;;;;;;7.42;2.30;;;;;;;26.85;32.70;97050.48;1473466;97;25867;-75
2022/05/31 11:41:41;;;;;;;3.17;2.12;;;;;;;27.05;32.06;97050.46;1453327;98;25878;-75
2022/05/31 11:44:40;;;;;;;4.80;2.00;;;;;;;27.14;32.02;97051.27;1476568;97;25844;-74
2022/05/31 11:47:26;;;;;;;3.17;1.98;;;;;;;27.18;32.35;97039.75;1475812;95;25896;-75
2022/05/31 11:50:11;;;;;;;5.00;2.02;;;;;;;27.27;32.02;97030.06;1474788;97;27460;-75
2022/05/31 11:53:03;;;;;;;5.70;2.42;;;;;;;27.32;32.28;97039.01;1528632;92;25996;-75
2022/05/31 11:55:37;;;;;;;2.22;1.95;;;;;;;27.52;32.31;97031.98;1521790;94;25436;-75
2022/05/31 11:58:36;;;;;;;2.65;2.10;;;;;;;27.59;31.03;97034.52;1486106;96;25818;-75
2022/05/31 12:01:25;;;;;;;3.55;2.08;;;;;;;27.54;30.97;97033.25;1496691;95;25786;-75
2022/05/31 12:04:06;;;;;;;3.67;2.10;;;;;;;27.62;31.25;97036.39;1497098;95;28310;-75
2022/05/31 12:06:51;;;;;;;2.67;2.20;;;;;;;27.56;30.72;97033.78;1500712;94;25619;-74
2022/05/31 12:09:30;;;;;;;1.92;1.80;;;;;;;27.40;30.45;97029.89;1516083;94;25897;-76
2022/05/31 12:12:32;;;;;;;2.10;1.82;;;;;;;27.28;30.87;97022.81;1516983;94;26429;-74
2022/05/31 12:15:21;;;;;;;3.15;2.50;;;;;;;27.39;30.96;97022.72;1536542;90;32441;-75
2022/05/31 12:18:06;;;;;;;2.08;1.70;;;;;;;27.46;31.16;97018.85;1595606;89;27426;-74
2022/05/31 12:20:43;;;;;;;2.60;1.85;;;;;;;27.47;31.12;97010.78;1578027;90;25880;-74
2022/05/31 12:23:42;;;;;;;2.72;2.00;;;;;;;27.50;31.70;97008.75;1565850;91;25868;-74
2022/05/31 12:26:32;;;;;;;2.17;2.08;;;;;;;27.47;30.95;97009.97;1565916;91;25691;-74
2022/05/31 12:29:11;;;;;;;3.58;1.82;;;;;;;27.47;31.33;96999.70;1565724;91;25716;-75
2022/05/31 12:31:40;;;;;;;2.00;1.85;;;;;;;27.50;30.86;97001.81;1546745;92;28285;-74